createdAt,value
2022-10-05T00:01:35.293Z,9.10
2022-10-05T00:04:25.897Z,8.80
2022-10-05T00:06:59.208Z,9.50
2022-10-05T00:09:25.787Z,8.98
2022-10-05T00:11:52.267Z,7.95
2022-10-05T00:14:34.989Z,7.72
2022-10-05T00:17:04.454Z,7.85
2022-10-05T00:19:39.012Z,8.95
2022-10-05T00:22:14.764Z,7.25
2022-10-05T00:24:41.322Z,8.27
2022-10-05T00:27:21.364Z,9.13
2022-10-05T00:29:50.440Z,7.85
2022-10-05T00:32:17.320Z,7.60
2022-10-05T00:34:45.145Z,8.15
2022-10-05T00:37:13.438Z,7.70
2022-10-05T00:39:41.073Z,8.38
2022-10-05T00:42:28.752Z,8.13
2022-10-05T00:45:05.746Z,8.13
2022-10-05T00:47:38.537Z,7.28
2022-10-05T00:50:13.759Z,7.82
2022-10-05T00:53:02.072Z,9.38
2022-10-05T00:55:47.385Z,7.55
2022-10-05T00:58:49.060Z,8.02
2022-10-05T01:01:24.239Z,7.90
2022-10-05T01:04:25.994Z,8.25
2022-10-05T01:07:22.382Z,8.90
2022-10-05T01:10:09.671Z,8.40
2022-10-05T01:12:54.131Z,7.35
2022-10-05T01:15:45.367Z,7.80
2022-10-05T01:18:14.562Z,8.57
2022-10-05T01:20:50.025Z,8.43
2022-10-05T01:23:32.870Z,7.90
2022-10-05T01:26:26.560Z,7.60
2022-10-05T01:29:10.382Z,9.23
2022-10-05T01:31:56.234Z,8.23
2022-10-05T01:34:31.499Z,9.60
2022-10-05T01:37:16.916Z,8.65
2022-10-05T01:39:45.965Z,9.23
2022-10-05T01:42:41.163Z,8.90
2022-10-05T01:45:52.860Z,9.57
2022-10-05T01:48:44.260Z,10.90
2022-10-05T01:51:22.243Z,9.07
2022-10-05T01:54:00.218Z,10.00
2022-10-05T01:56:45.447Z,10.27
2022-10-05T01:59:18.942Z,9.80
2022-10-05T02:01:55.603Z,8.50
2022-10-05T02:07:38.747Z,9.85
2022-10-05T02:10:08.749Z,9.02
2022-10-05T02:12:38.372Z,8.35
2022-10-05T02:15:19.633Z,8.30
2022-10-05T02:17:50.408Z,9.18
2022-10-05T02:20:25.326Z,8.90
2022-10-05T02:22:56.082Z,10.00
2022-10-05T02:25:28.839Z,10.70
2022-10-05T02:28:01.976Z,10.55
2022-10-05T02:30:31.508Z,9.30
2022-10-05T02:33:02.657Z,9.85
2022-10-05T02:35:29.107Z,9.20
2022-10-05T02:38:11.704Z,8.65
2022-10-05T02:40:50.035Z,9.13
2022-10-05T02:43:38.941Z,9.00
2022-10-05T02:46:33.688Z,8.93
2022-10-05T02:49:31.116Z,8.85
2022-10-05T02:52:10.914Z,9.13
2022-10-05T02:54:46.179Z,9.70
2022-10-05T02:57:28.326Z,8.63
2022-10-05T03:00:25.844Z,10.40
2022-10-05T03:03:08.764Z,8.02
2022-10-05T03:05:48.246Z,9.85
2022-10-05T03:08:20.359Z,8.27
2022-10-05T03:11:00.103Z,8.48
2022-10-05T03:13:34.256Z,9.63
2022-10-05T03:16:18.439Z,9.45
2022-10-05T03:19:12.907Z,8.63
2022-10-05T03:22:07.907Z,9.05
2022-10-05T03:24:56.300Z,9.52
2022-10-05T03:27:36.546Z,9.45
2022-10-05T03:30:15.284Z,9.82
2022-10-05T03:32:55.906Z,10.38
2022-10-05T03:35:31.655Z,8.25
2022-10-05T03:38:08.167Z,8.70
2022-10-05T03:40:54.350Z,8.57
2022-10-05T03:43:29.829Z,9.73
2022-10-05T03:46:12.594Z,9.27
2022-10-05T03:49:27.559Z,8.95
2022-10-05T03:52:02.566Z,9.52
2022-10-05T03:54:38.487Z,9.80
2022-10-05T03:57:14.400Z,10.05
2022-10-05T03:59:55.856Z,9.88
2022-10-05T04:02:49.310Z,8.55
2022-10-05T04:05:29.863Z,8.45
2022-10-05T04:08:06.280Z,9.70
2022-10-05T04:10:52.860Z,10.52
2022-10-05T04:13:30.165Z,9.93
2022-10-05T04:16:24.927Z,10.40
2022-10-05T04:19:01.233Z,8.98
2022-10-05T04:21:38.172Z,9.65
2022-10-05T04:24:30.964Z,9.93
2022-10-05T04:27:44.131Z,9.27
2022-10-05T04:30:17.600Z,9.73
2022-10-05T04:32:48.351Z,10.00
2022-10-05T04:35:17.523Z,9.45
2022-10-05T04:37:55.610Z,8.90
2022-10-05T04:40:55.022Z,8.98
2022-10-05T04:43:30.010Z,9.95
2022-10-05T04:46:10.688Z,8.60
2022-10-05T04:48:58.532Z,10.98
2022-10-05T04:52:02.780Z,11.25
2022-10-05T04:55:06.959Z,10.55
2022-10-05T04:57:45.535Z,11.65
2022-10-05T05:00:41.178Z,11.45
2022-10-05T05:03:20.818Z,10.93
2022-10-05T05:06:17.211Z,11.15
2022-10-05T05:09:15.143Z,10.90
2022-10-05T05:12:05.576Z,10.07
2022-10-05T05:15:04.418Z,10.82
2022-10-05T05:17:39.719Z,11.07
2022-10-05T05:20:49.479Z,11.00
2022-10-05T05:23:30.373Z,12.93
2022-10-05T05:26:16.871Z,11.93
2022-10-05T05:28:54.614Z,12.05
2022-10-05T05:31:46.593Z,9.23
2022-10-05T05:34:43.095Z,12.50
2022-10-05T05:37:15.486Z,12.50
2022-10-05T05:40:25.044Z,13.35
2022-10-05T05:43:03.223Z,11.98
2022-10-05T05:45:41.010Z,12.40
2022-10-05T05:48:15.285Z,12.73
2022-10-05T05:51:03.570Z,12.43
2022-10-05T05:53:36.787Z,10.82
2022-10-05T05:56:20.955Z,12.63
2022-10-05T05:58:59.524Z,11.52
2022-10-05T06:01:43.527Z,11.07
2022-10-05T06:04:18.440Z,11.43
2022-10-05T06:06:50.260Z,12.55
2022-10-05T06:11:55.936Z,11.88
2022-10-05T06:14:29.139Z,12.68
2022-10-05T06:17:26.367Z,12.20
2022-10-05T06:20:02.448Z,12.25
2022-10-05T06:22:39.139Z,12.88
2022-10-05T06:25:34.035Z,12.82
2022-10-05T06:28:12.137Z,12.55
2022-10-05T06:30:53.251Z,12.68
2022-10-05T06:33:42.096Z,13.35
2022-10-05T06:36:32.810Z,11.68
2022-10-05T06:39:17.635Z,12.95
2022-10-05T06:42:14.737Z,12.75
2022-10-05T06:44:54.542Z,11.90
2022-10-05T06:47:42.346Z,12.43
2022-10-05T06:50:40.614Z,14.25
2022-10-05T06:53:57.028Z,12.40
2022-10-05T06:56:33.028Z,12.73
2022-10-05T06:59:21.112Z,12.63
2022-10-05T07:02:30.456Z,13.23
2022-10-05T07:05:10.769Z,11.88
2022-10-05T07:07:47.355Z,14.35
2022-10-05T07:10:41.536Z,11.77
2022-10-05T07:13:17.067Z,11.20
2022-10-05T07:16:06.015Z,14.35
2022-10-05T07:18:49.787Z,11.20
2022-10-05T07:21:51.602Z,13.35
2022-10-05T07:24:38.931Z,12.43
2022-10-05T07:27:14.586Z,12.90
2022-10-05T07:29:47.895Z,12.68
2022-10-05T07:32:39.752Z,11.65
2022-10-05T07:35:57.542Z,12.75
2022-10-05T07:38:32.992Z,12.48
2022-10-05T07:41:06.588Z,13.45
2022-10-05T07:44:02.003Z,15.45
2022-10-05T07:47:17.640Z,11.63
2022-10-05T07:49:52.557Z,12.10
2022-10-05T07:52:56.010Z,11.55
2022-10-05T07:55:32.222Z,10.38
2022-10-05T07:58:29.463Z,10.10
2022-10-05T08:01:19.120Z,18.10
2022-10-05T08:03:45.689Z,13.48
2022-10-05T08:06:38.124Z,12.60
2022-10-05T08:09:22.493Z,14.73
2022-10-05T08:11:52.273Z,17.13
2022-10-05T08:14:28.797Z,18.45
2022-10-05T08:16:59.750Z,14.57
2022-10-05T08:19:32.446Z,20.97
2022-10-05T08:22:05.076Z,20.95
2022-10-05T08:24:34.359Z,12.00
2022-10-05T08:27:20.512Z,19.13
2022-10-05T08:29:58.460Z,13.27
2022-10-05T08:32:30.500Z,13.23
2022-10-05T08:34:59.949Z,17.95
2022-10-05T08:37:35.498Z,13.48
2022-10-05T08:40:35.948Z,15.23
2022-10-05T08:43:41.549Z,17.67
2022-10-05T08:46:53.243Z,15.18
2022-10-05T08:49:22.863Z,17.70
2022-10-05T08:51:56.787Z,15.98
2022-10-05T08:54:38.279Z,16.23
2022-10-05T08:57:29.508Z,15.35
2022-10-05T09:00:12.659Z,15.73
2022-10-05T09:03:01.042Z,15.80
2022-10-05T09:06:02.704Z,13.73
2022-10-05T09:08:47.796Z,10.63
2022-10-05T09:11:35.974Z,15.73
2022-10-05T09:14:11.469Z,13.85
2022-10-05T09:16:46.920Z,13.73
2022-10-05T09:19:51.011Z,13.45
2022-10-05T09:22:38.887Z,14.30
2022-10-05T09:25:18.504Z,14.30
2022-10-05T09:28:01.893Z,15.50
2022-10-05T09:30:40.218Z,11.45
2022-10-05T09:37:06.904Z,16.23
2022-10-05T09:40:01.186Z,18.50
2022-10-05T09:43:01.684Z,14.05
2022-10-05T09:45:36.817Z,13.35
2022-10-05T09:48:37.754Z,12.15
2022-10-05T09:51:19.706Z,14.07
2022-10-05T09:56:49.847Z,12.57
2022-10-05T09:59:46.265Z,13.43
2022-10-05T10:02:50.785Z,13.00
2022-10-05T10:05:47.458Z,13.90
2022-10-05T10:08:26.180Z,12.90
2022-10-05T10:11:29.585Z,10.60
2022-10-05T10:15:09.750Z,10.50
2022-10-05T10:18:06.325Z,9.88
2022-10-05T10:20:47.661Z,9.00
2022-10-05T10:23:38.499Z,11.45
2022-10-05T10:26:25.879Z,10.23
2022-10-05T10:29:19.717Z,10.10
2022-10-05T10:32:31.095Z,7.88
2022-10-05T10:35:00.556Z,9.15
2022-10-05T10:37:36.132Z,8.25
2022-10-05T10:40:20.276Z,9.25
2022-10-05T10:43:18.627Z,7.47
2022-10-05T10:45:56.673Z,10.95
2022-10-05T10:48:28.897Z,11.98
2022-10-05T10:50:58.251Z,8.90
2022-10-05T10:54:03.620Z,8.13
2022-10-05T10:56:45.107Z,8.77
2022-10-05T10:59:49.956Z,10.18
2022-10-05T11:02:49.859Z,9.70
2022-10-05T11:05:22.245Z,8.90
2022-10-05T11:08:13.529Z,8.93
2022-10-05T11:10:58.897Z,8.43
2022-10-05T11:13:52.569Z,9.43
2022-10-05T11:16:48.410Z,10.82
2022-10-05T11:19:35.138Z,8.40
2022-10-05T11:24:50.158Z,7.40
2022-10-05T11:27:41.587Z,9.83
2022-10-05T11:30:52.232Z,9.65
2022-10-05T11:33:30.843Z,8.82
2022-10-05T11:36:16.204Z,10.27
2022-10-05T11:39:04.238Z,9.18
2022-10-05T11:41:51.807Z,9.57
2022-10-05T11:44:18.329Z,8.32
2022-10-05T11:46:47.576Z,9.25
2022-10-05T11:49:27.041Z,7.18
2022-10-05T11:52:12.969Z,8.38
2022-10-05T11:55:05.701Z,10.13
2022-10-05T11:57:37.806Z,8.65
2022-10-05T12:00:13.840Z,8.18
2022-10-05T12:02:59.825Z,7.50
2022-10-05T12:05:57.374Z,9.10
2022-10-05T12:09:03.623Z,8.00
2022-10-05T12:11:42.765Z,8.02
2022-10-05T12:14:48.793Z,7.72
2022-10-05T12:17:27.966Z,7.78
2022-10-05T12:20:13.180Z,6.65
2022-10-05T12:22:50.713Z,7.43
2022-10-05T12:25:33.670Z,7.15
2022-10-05T12:28:05.679Z,6.72
2022-10-05T12:30:47.698Z,7.93
2022-10-05T12:33:25.547Z,8.98
2022-10-05T12:36:12.052Z,7.75
2022-10-05T12:38:46.132Z,7.82
2022-10-05T12:41:38.456Z,7.22
2022-10-05T12:44:13.207Z,7.13
2022-10-05T12:46:48.927Z,6.47
2022-10-05T12:49:24.241Z,6.75
2022-10-05T12:51:57.911Z,6.07
2022-10-05T12:54:32.288Z,6.47
2022-10-05T12:57:06.154Z,7.53
2022-10-05T12:59:50.558Z,6.93
2022-10-05T13:02:29.219Z,9.02
2022-10-05T13:05:07.819Z,8.05
2022-10-05T13:07:38.586Z,7.80
2022-10-05T13:10:29.901Z,7.03
2022-10-05T13:13:34.259Z,7.22
2022-10-05T13:16:16.594Z,5.95
2022-10-05T13:19:14.410Z,5.88
2022-10-05T13:21:49.799Z,5.70
2022-10-05T13:24:26.656Z,5.40
2022-10-05T13:27:03.911Z,6.15
2022-10-05T13:29:54.494Z,5.70
2022-10-05T13:32:25.791Z,6.38
2022-10-05T13:35:01.250Z,5.55
2022-10-05T13:38:06.224Z,5.18
2022-10-05T13:40:58.084Z,6.30
2022-10-05T13:43:49.135Z,5.32
2022-10-05T13:46:34.627Z,5.80
2022-10-05T13:49:19.456Z,5.22
2022-10-05T13:52:01.399Z,4.55
2022-10-05T13:57:51.599Z,7.70
2022-10-05T14:00:26.620Z,4.60
2022-10-05T14:02:56.806Z,4.78
2022-10-05T14:05:28.704Z,5.10
2022-10-05T14:08:04.854Z,4.95
2022-10-05T14:10:53.773Z,5.47
2022-10-05T14:13:44.197Z,4.53
2022-10-05T14:16:13.662Z,5.85
2022-10-05T14:19:09.033Z,4.68
2022-10-05T14:22:24.732Z,5.18
2022-10-05T14:25:13.765Z,4.57
2022-10-05T14:28:24.163Z,4.65
2022-10-05T14:31:15.097Z,4.97
2022-10-05T14:33:42.208Z,4.50
2022-10-05T14:36:21.261Z,4.25
2022-10-05T14:38:57.944Z,4.22
2022-10-05T14:41:27.339Z,5.00
2022-10-05T14:44:05.369Z,4.30
2022-10-05T14:46:34.513Z,4.10
2022-10-05T14:49:37.346Z,4.60
2022-10-05T14:52:32.511Z,3.75
2022-10-05T14:55:06.990Z,4.15
2022-10-05T14:57:39.947Z,4.65
2022-10-05T15:00:12.511Z,3.80
2022-10-05T15:03:18.662Z,4.22
2022-10-05T15:05:45.103Z,4.50
2022-10-05T15:08:11.503Z,3.65
2022-10-05T15:10:56.706Z,4.90
2022-10-05T15:13:32.743Z,3.95
2022-10-05T15:16:33.560Z,4.00
2022-10-05T15:19:16.070Z,4.68
2022-10-05T15:21:45.367Z,3.72
2022-10-05T15:24:19.783Z,3.78
2022-10-05T15:26:50.576Z,4.25
2022-10-05T15:29:52.219Z,4.53
2022-10-05T15:32:58.002Z,4.90
2022-10-05T15:35:48.033Z,4.78
2022-10-05T15:38:23.176Z,4.65
2022-10-05T15:41:46.043Z,4.18
2022-10-05T15:44:26.009Z,5.00
2022-10-05T15:46:56.432Z,4.35
2022-10-05T15:49:37.044Z,4.70
2022-10-05T15:52:19.534Z,4.80
2022-10-05T15:55:07.193Z,3.95
2022-10-05T15:57:56.171Z,4.55
2022-10-05T16:00:25.290Z,6.85
2022-10-05T16:03:29.390Z,5.43
2022-10-05T16:06:47.277Z,5.35
2022-10-05T16:09:13.668Z,4.95
2022-10-05T16:11:59.022Z,4.20
2022-10-05T16:14:30.643Z,4.57
2022-10-05T16:17:16.462Z,4.82
2022-10-05T16:20:17.158Z,4.60
2022-10-05T16:22:51.440Z,4.40
2022-10-05T16:25:29.024Z,4.20
2022-10-05T16:28:17.922Z,4.07
2022-10-05T16:30:53.312Z,4.20
2022-10-05T16:33:54.292Z,4.80
2022-10-05T16:36:22.518Z,4.07
2022-10-05T16:39:03.449Z,3.90
2022-10-05T16:41:42.692Z,4.10
2022-10-05T16:44:24.519Z,4.80
2022-10-05T16:49:39.560Z,5.35
2022-10-05T16:52:13.747Z,4.32
2022-10-05T16:54:53.640Z,4.32
2022-10-05T16:57:24.999Z,6.05
2022-10-05T17:00:24.529Z,6.13
2022-10-05T17:03:04.837Z,8.18
2022-10-05T17:05:51.251Z,8.60
2022-10-05T17:08:51.823Z,6.80
2022-10-05T17:11:51.971Z,8.13
2022-10-05T17:14:36.906Z,10.43
2022-10-05T17:17:58.727Z,8.95
2022-10-05T17:20:46.403Z,9.93
2022-10-05T17:23:29.236Z,6.95
2022-10-05T17:26:04.332Z,10.27
2022-10-05T17:28:57.480Z,9.85
2022-10-05T17:31:27.825Z,9.50
2022-10-05T17:34:00.271Z,9.68
2022-10-05T17:36:57.809Z,10.68
2022-10-05T17:39:52.541Z,11.30
2022-10-05T17:42:34.310Z,11.02
2022-10-05T17:45:20.705Z,10.70
2022-10-05T17:48:03.288Z,11.23
2022-10-05T17:51:02.107Z,11.77
2022-10-05T17:54:05.396Z,13.52
2022-10-05T17:56:52.457Z,16.13
2022-10-05T17:59:46.274Z,16.35
2022-10-05T18:02:36.702Z,15.13
2022-10-05T18:05:04.204Z,13.93
2022-10-05T18:07:31.887Z,13.77
2022-10-05T18:10:00.378Z,13.90
2022-10-05T18:12:40.145Z,10.40
2022-10-05T18:15:06.564Z,12.77
2022-10-05T18:18:00.845Z,14.38
2022-10-05T18:20:32.351Z,13.13
2022-10-05T18:25:52.851Z,14.50
2022-10-05T18:28:35.558Z,13.45
2022-10-05T18:31:21.344Z,12.95
2022-10-05T18:34:21.106Z,14.13
2022-10-05T18:37:15.658Z,14.60
2022-10-05T18:40:23.600Z,14.20
2022-10-05T18:43:19.578Z,12.05
2022-10-05T18:46:08.063Z,12.60
2022-10-05T18:48:46.792Z,14.27
2022-10-05T18:51:28.470Z,14.05
2022-10-05T18:54:28.384Z,13.20
2022-10-05T18:56:54.885Z,13.38
2022-10-05T18:59:47.825Z,14.05
2022-10-05T19:02:38.392Z,13.70
2022-10-05T19:05:23.641Z,12.13
2022-10-05T19:08:42.507Z,13.40
2022-10-05T19:11:23.144Z,16.55
2022-10-05T19:14:14.040Z,18.10
2022-10-05T19:16:54.649Z,16.17
2022-10-05T19:19:42.666Z,16.33
2022-10-05T19:22:17.882Z,15.50
2022-10-05T19:25:24.107Z,16.42
2022-10-05T19:28:28.026Z,16.98
2022-10-05T19:31:13.077Z,17.25
2022-10-05T19:34:09.032Z,17.45
2022-10-05T19:36:53.740Z,17.67
2022-10-05T19:39:59.281Z,17.63
2022-10-05T19:42:53.128Z,17.63
2022-10-05T19:45:28.327Z,21.25
2022-10-05T19:48:03.960Z,18.30
2022-10-05T19:50:33.565Z,17.92
2022-10-05T19:53:14.446Z,17.55
2022-10-05T19:55:47.556Z,16.00
2022-10-05T19:58:25.341Z,15.80
2022-10-05T20:00:55.314Z,13.75
2022-10-05T20:03:29.890Z,14.88
2022-10-05T20:06:01.454Z,15.73
2022-10-05T20:08:39.830Z,14.23
2022-10-05T20:11:35.133Z,15.48
2022-10-05T20:14:01.685Z,14.52
2022-10-05T20:16:49.448Z,14.43
2022-10-05T20:19:54.016Z,15.05
2022-10-05T20:22:27.488Z,14.52
2022-10-05T20:24:56.712Z,14.75
2022-10-05T20:27:55.206Z,14.20
2022-10-05T20:30:27.385Z,13.23
2022-10-05T20:32:59.667Z,14.65
2022-10-05T20:35:30.536Z,12.68
2022-10-05T20:37:59.742Z,12.70
2022-10-05T20:40:30.243Z,12.45
2022-10-05T20:42:58.246Z,13.45
2022-10-05T20:45:25.191Z,12.68
2022-10-05T20:47:51.619Z,11.85
2022-10-05T20:50:18.366Z,11.75
2022-10-05T20:52:44.817Z,12.05
2022-10-05T20:55:12.564Z,11.60
2022-10-05T20:57:42.095Z,11.85
2022-10-05T21:00:10.353Z,12.95
2022-10-05T21:02:37.227Z,11.60
2022-10-05T21:05:04.674Z,10.52
2022-10-05T21:07:31.279Z,12.50
2022-10-05T21:09:57.755Z,11.98
2022-10-05T21:12:24.260Z,12.07
2022-10-05T21:14:52.592Z,11.43
2022-10-05T21:17:20.175Z,11.88
2022-10-05T21:19:47.417Z,12.65
2022-10-05T21:22:13.841Z,11.85
2022-10-05T21:24:41.023Z,12.20
2022-10-05T21:27:07.943Z,13.05
2022-10-05T21:29:36.422Z,11.35
2022-10-05T21:32:08.289Z,13.48
2022-10-05T21:37:01.607Z,12.82
2022-10-05T21:39:28.173Z,12.25
2022-10-05T21:41:54.651Z,12.52
2022-10-05T21:44:21.086Z,13.75
2022-10-05T21:46:48.388Z,14.32
2022-10-05T21:49:19.505Z,14.57
2022-10-05T21:51:47.217Z,13.98
2022-10-05T21:54:21.041Z,12.77
2022-10-05T21:56:51.368Z,15.02
2022-10-05T21:59:21.588Z,14.02
2022-10-05T22:01:48.018Z,15.63
2022-10-05T22:04:15.089Z,13.77
2022-10-05T22:06:41.535Z,15.13
2022-10-05T22:09:08.035Z,14.73
2022-10-05T22:11:34.533Z,15.63
2022-10-05T22:14:03.848Z,13.73
2022-10-05T22:16:33.414Z,14.95
2022-10-05T22:19:05.084Z,15.30
2022-10-05T22:21:34.211Z,15.95
2022-10-05T22:24:02.400Z,12.88
2022-10-05T22:26:29.003Z,14.85
2022-10-05T22:28:56.792Z,14.63
2022-10-05T22:31:24.077Z,15.63
2022-10-05T22:33:51.272Z,14.18
2022-10-05T22:36:18.154Z,14.98
2022-10-05T22:38:46.552Z,14.85
2022-10-05T22:41:14.402Z,14.30
2022-10-05T22:43:40.812Z,14.25
2022-10-05T22:46:09.713Z,14.57
2022-10-05T22:48:36.531Z,13.82
2022-10-05T22:51:03.099Z,13.23
2022-10-05T22:53:29.580Z,12.55
2022-10-05T22:55:56.024Z,12.40
2022-10-05T22:58:22.497Z,12.45
2022-10-05T23:00:58.694Z,11.15
2022-10-05T23:03:25.415Z,9.07
2022-10-05T23:06:00.636Z,9.50
2022-10-05T23:08:27.653Z,9.93
2022-10-05T23:10:54.578Z,8.70
2022-10-05T23:13:22.390Z,8.60
2022-10-05T23:15:49.088Z,9.00
2022-10-05T23:18:16.682Z,9.20
2022-10-05T23:20:43.158Z,8.27
2022-10-05T23:23:09.679Z,9.38
2022-10-05T23:25:36.502Z,9.38
2022-10-05T23:28:03.079Z,7.40
2022-10-05T23:30:29.653Z,9.02
2022-10-05T23:32:56.106Z,8.50
2022-10-05T23:35:22.516Z,8.05
2022-10-05T23:37:48.940Z,8.55
2022-10-05T23:40:15.451Z,7.80
2022-10-05T23:42:42.491Z,8.43
2022-10-05T23:45:11.286Z,8.50
2022-10-05T23:47:38.752Z,7.88
2022-10-05T23:50:07.042Z,8.63
2022-10-05T23:52:34.718Z,8.65
2022-10-05T23:55:05.220Z,8.27
2022-10-05T23:57:31.969Z,8.38
2022-10-05T23:59:58.474Z,8.93
